Terminal Aerodrome Forecast
Issued by NWS Albany, NY

Home | Current Version | Previous Version | Text Only | Print | Product List | Glossary On
Versions: 1 2 3 4 5 6 7 8 9 10 11 12 13 14 15 16 17 18 19
000
FTUS41 KALY 012300
TAFPOU
TAF
KPOU 012333Z 0200/0224 17004KT P6SM FEW050 BKN250
     FM020200 VRB03KT 5SM BR FEW015 BKN120
     FM020800 00000KT 3SM BR BKN008 OVC060
     FM021200 12004KT 3SM -RA BR SCT008 BKN015 OVC050
     FM021600 05005KT P6SM VCSH BKN035 OVC060=

USA.gov is the U.S. government's official web portal to all federal, state and local government web resources and services.